createdAt,value
2018-03-01T00:00:24.424Z,100.00
2018-03-01T00:01:28.070Z,100.00
2018-03-01T00:02:31.544Z,100.00
2018-03-01T00:03:35.056Z,100.00
2018-03-01T00:04:38.584Z,100.00
2018-03-01T00:05:42.026Z,100.00
2018-03-01T00:06:45.574Z,100.00
2018-03-01T00:07:49.520Z,100.00
2018-03-01T00:08:53.043Z,100.00
2018-03-01T00:09:56.463Z,100.00
2018-03-01T00:11:00.085Z,100.00
2018-03-01T00:12:03.642Z,100.00
2018-03-01T00:13:07.199Z,100.00
2018-03-01T00:14:11.521Z,100.00
2018-03-01T00:15:16.104Z,100.00
2018-03-01T00:16:19.605Z,100.00
2018-03-01T00:17:23.031Z,100.00
2018-03-01T00:18:26.479Z,100.00
2018-03-01T00:19:29.935Z,100.00
2018-03-01T00:20:33.746Z,100.00
2018-03-01T00:21:37.178Z,100.00
2018-03-01T00:22:40.508Z,100.00
2018-03-01T00:23:44.677Z,100.00
2018-03-01T00:24:48.210Z,100.00
2018-03-01T00:25:51.804Z,100.00
2018-03-01T00:26:55.827Z,100.00
2018-03-01T00:27:59.324Z,100.00
2018-03-01T00:29:03.007Z,100.00
2018-03-01T00:30:06.567Z,100.00
2018-03-01T00:31:09.997Z,100.00
2018-03-01T00:32:13.321Z,100.00
2018-03-01T00:33:17.131Z,100.00
2018-03-01T00:34:20.701Z,100.00
2018-03-01T00:35:24.268Z,100.00
2018-03-01T00:36:27.835Z,100.00
2018-03-01T00:37:31.392Z,100.00
2018-03-01T00:38:35.046Z,100.00
2018-03-01T00:39:38.878Z,100.00
2018-03-01T00:40:43.281Z,100.00
2018-03-01T00:41:46.784Z,100.00
2018-03-01T00:42:50.460Z,100.00
2018-03-01T00:43:54.042Z,100.00
2018-03-01T00:44:57.724Z,100.00
2018-03-01T00:46:01.541Z,100.00
2018-03-01T00:47:05.156Z,100.00
2018-03-01T00:48:08.815Z,100.00
2018-03-01T00:49:12.575Z,100.00
2018-03-01T00:50:16.131Z,100.00
2018-03-01T00:51:19.623Z,100.00
2018-03-01T00:52:23.588Z,100.00
2018-03-01T00:53:27.213Z,100.00
2018-03-01T00:54:31.089Z,100.00
2018-03-01T00:55:34.800Z,100.00
2018-03-01T00:56:38.341Z,100.00
2018-03-01T00:57:42.029Z,100.00
2018-03-01T00:58:45.802Z,100.00
2018-03-01T00:59:49.494Z,100.00
2018-03-01T01:00:53.105Z,100.00
2018-03-01T01:01:56.550Z,100.00
2018-03-01T01:03:00.040Z,100.00
2018-03-01T01:04:03.576Z,100.00
2018-03-01T01:05:07.517Z,100.00
2018-03-01T01:06:11.239Z,100.00
2018-03-01T01:07:14.725Z,100.00
2018-03-01T01:08:18.348Z,100.00
2018-03-01T01:09:21.959Z,100.00
2018-03-01T01:10:25.561Z,100.00
2018-03-01T01:11:29.471Z,100.00
2018-03-01T01:12:33.053Z,100.00
2018-03-01T01:13:36.583Z,100.00
2018-03-01T01:14:40.147Z,100.00
2018-03-01T01:15:44.217Z,100.00
2018-03-01T01:16:47.941Z,100.00
2018-03-01T01:17:51.772Z,100.00
2018-03-01T01:18:55.367Z,100.00
2018-03-01T01:19:59.251Z,100.00
2018-03-01T01:21:02.949Z,100.00
2018-03-01T01:22:06.520Z,100.00
2018-03-01T01:23:10.219Z,100.00
2018-03-01T01:24:13.835Z,100.00
2018-03-01T01:25:17.597Z,100.00
2018-03-01T01:26:21.189Z,100.00
2018-03-01T01:27:24.993Z,100.00
2018-03-01T01:28:29.040Z,100.00
2018-03-01T01:29:32.658Z,100.00
2018-03-01T01:30:36.517Z,100.00
2018-03-01T01:31:40.159Z,100.00
2018-03-01T01:32:44.828Z,100.00
2018-03-01T01:33:48.441Z,100.00
2018-03-01T01:34:52.441Z,100.00
2018-03-01T01:35:56.248Z,100.00
2018-03-01T01:37:00.034Z,100.00
2018-03-01T01:38:03.699Z,100.00
2018-03-01T01:39:07.470Z,100.00
2018-03-01T01:40:11.133Z,100.00
2018-03-01T01:41:15.333Z,100.00
2018-03-01T01:42:18.823Z,100.00
2018-03-01T01:43:22.402Z,100.00
2018-03-01T01:44:26.169Z,100.00
2018-03-01T01:45:29.823Z,100.00
2018-03-01T01:46:33.120Z,100.00
2018-03-01T01:47:36.961Z,100.00
2018-03-01T01:48:40.619Z,100.00
2018-03-01T01:49:44.312Z,100.00
2018-03-01T01:50:48.069Z,100.00
2018-03-01T01:51:51.730Z,100.00
2018-03-01T01:52:55.280Z,100.00
2018-03-01T01:53:59.498Z,100.00
2018-03-01T01:55:03.075Z,100.00
2018-03-01T01:56:06.662Z,100.00
2018-03-01T01:57:10.300Z,100.00
2018-03-01T01:58:14.174Z,100.00
2018-03-01T01:59:17.647Z,100.00
2018-03-01T02:00:21.640Z,100.00
2018-03-01T02:01:25.030Z,100.00
2018-03-01T02:02:28.622Z,100.00
2018-03-01T02:03:32.286Z,100.00
2018-03-01T02:04:36.116Z,100.00
2018-03-01T02:05:39.887Z,100.00
2018-03-01T02:06:43.744Z,100.00
2018-03-01T02:07:48.307Z,100.00
2018-03-01T02:08:51.864Z,100.00
2018-03-01T02:09:55.386Z,100.00
2018-03-01T02:10:59.043Z,100.00
2018-03-01T02:12:02.650Z,100.00
2018-03-01T02:13:06.663Z,100.00
2018-03-01T02:14:10.341Z,100.00
2018-03-01T02:15:14.358Z,100.00
2018-03-01T02:16:17.977Z,100.00
2018-03-01T02:17:21.570Z,100.00
2018-03-01T02:18:25.265Z,100.00
2018-03-01T02:19:29.165Z,100.00
2018-03-01T02:20:32.683Z,100.00
2018-03-01T02:21:36.228Z,100.00
2018-03-01T02:22:39.593Z,100.00
2018-03-01T02:23:43.348Z,100.00
2018-03-01T02:24:47.002Z,100.00
2018-03-01T02:25:50.809Z,100.00
2018-03-01T02:26:54.427Z,100.00
2018-03-01T02:27:57.982Z,100.00
2018-03-01T02:29:01.560Z,100.00
2018-03-01T02:30:05.193Z,100.00
2018-03-01T02:31:08.811Z,100.00
2018-03-01T02:32:12.517Z,100.00
2018-03-01T02:33:16.048Z,100.00
2018-03-01T02:34:19.511Z,100.00
2018-03-01T02:35:22.794Z,100.00
2018-03-01T02:36:27.214Z,100.00
2018-03-01T02:37:30.439Z,100.00
2018-03-01T02:38:33.911Z,100.00
2018-03-01T02:39:37.737Z,100.00
2018-03-01T02:40:41.188Z,100.00
2018-03-01T02:41:44.728Z,100.00
2018-03-01T02:42:48.307Z,100.00
2018-03-01T02:43:52.122Z,100.00
2018-03-01T02:44:55.845Z,100.00
2018-03-01T02:45:59.335Z,100.00
2018-03-01T02:47:03.044Z,100.00
2018-03-01T02:48:06.288Z,100.00
2018-03-01T02:49:10.008Z,100.00
2018-03-01T02:50:13.761Z,100.00
2018-03-01T02:51:17.393Z,100.00
2018-03-01T02:52:20.650Z,100.00
2018-03-01T02:53:24.119Z,100.00
2018-03-01T02:54:27.744Z,100.00
2018-03-01T02:55:31.311Z,100.00
2018-03-01T02:56:34.952Z,100.00
2018-03-01T02:57:38.624Z,100.00
2018-03-01T02:58:41.944Z,100.00
2018-03-01T02:59:45.265Z,100.00
2018-03-01T03:00:48.847Z,100.00
2018-03-01T03:01:52.353Z,100.00
2018-03-01T03:02:56.069Z,100.00
2018-03-01T03:03:59.533Z,100.00
2018-03-01T03:05:02.845Z,100.00
2018-03-01T03:06:06.130Z,100.00
2018-03-01T03:07:09.573Z,100.00
2018-03-01T03:08:13.086Z,100.00
2018-03-01T03:09:16.863Z,100.00
2018-03-01T03:10:20.130Z,100.00
2018-03-01T03:11:23.930Z,100.00
2018-03-01T03:12:27.230Z,100.00
2018-03-01T03:13:30.717Z,100.00
2018-03-01T03:14:33.935Z,100.00
2018-03-01T03:15:37.472Z,100.00
2018-03-01T03:16:40.649Z,100.00
2018-03-01T03:17:43.892Z,100.00
2018-03-01T03:18:47.253Z,100.00
2018-03-01T03:19:50.733Z,100.00
2018-03-01T03:20:54.051Z,100.00
2018-03-01T03:21:57.728Z,100.00
2018-03-01T03:23:01.139Z,100.00
2018-03-01T03:24:04.844Z,100.00
2018-03-01T03:25:08.062Z,100.00
2018-03-01T03:26:11.763Z,100.00
2018-03-01T03:27:15.266Z,100.00
2018-03-01T03:28:19.929Z,100.00
2018-03-01T03:29:23.468Z,100.00
2018-03-01T03:30:27.050Z,100.00
2018-03-01T03:31:30.418Z,100.00
2018-03-01T03:32:33.880Z,100.00
2018-03-01T03:33:37.272Z,100.00
2018-03-01T03:34:41.337Z,100.00
2018-03-01T03:35:44.487Z,100.00
2018-03-01T03:36:47.641Z,100.00
2018-03-01T03:37:50.862Z,100.00
2018-03-01T03:38:54.195Z,100.00
2018-03-01T03:39:57.483Z,100.00
2018-03-01T03:41:01.286Z,100.00
2018-03-01T03:42:04.816Z,100.00
2018-03-01T03:43:08.603Z,100.00
2018-03-01T03:44:11.906Z,100.00
2018-03-01T03:45:15.469Z,100.00
2018-03-01T03:46:18.665Z,100.00
2018-03-01T03:47:22.204Z,100.00
2018-03-01T03:48:25.650Z,100.00
2018-03-01T03:49:28.815Z,100.00
2018-03-01T03:50:32.112Z,100.00
2018-03-01T03:51:35.536Z,100.00
2018-03-01T03:52:38.824Z,100.00
2018-03-01T03:53:41.967Z,100.00
2018-03-01T03:54:45.113Z,100.00
2018-03-01T03:55:48.373Z,100.00
2018-03-01T03:56:51.622Z,100.00
2018-03-01T03:57:55.035Z,100.00
2018-03-01T03:58:58.242Z,100.00
2018-03-01T04:00:01.574Z,100.00
2018-03-01T04:01:04.763Z,100.00
2018-03-01T04:02:07.917Z,100.00
2018-03-01T04:03:11.040Z,100.00
2018-03-01T04:04:14.231Z,100.00
2018-03-01T04:05:17.565Z,100.00
2018-03-01T04:06:21.176Z,100.00
2018-03-01T04:07:24.390Z,100.00
2018-03-01T04:08:27.617Z,100.00
2018-03-01T04:09:30.906Z,100.00
2018-03-01T04:10:34.196Z,100.00
2018-03-01T04:11:37.393Z,100.00
2018-03-01T04:12:40.945Z,100.00
2018-03-01T04:13:44.179Z,100.00
2018-03-01T04:14:47.232Z,100.00
2018-03-01T04:15:50.571Z,100.00
2018-03-01T04:16:53.709Z,100.00
2018-03-01T04:17:57.016Z,100.00
2018-03-01T04:19:00.534Z,100.00
2018-03-01T04:20:03.540Z,100.00
2018-03-01T04:21:06.620Z,100.00
2018-03-01T04:22:09.742Z,100.00
2018-03-01T04:23:12.887Z,100.00
2018-03-01T04:24:16.292Z,100.00
2018-03-01T04:25:19.808Z,100.00
2018-03-01T04:26:22.920Z,100.00
2018-03-01T04:27:26.872Z,100.00
2018-03-01T04:28:30.144Z,100.00
2018-03-01T04:29:33.466Z,100.00
2018-03-01T04:30:36.843Z,100.00
2018-03-01T04:31:40.405Z,100.00
2018-03-01T04:32:43.721Z,100.00
2018-03-01T04:33:47.041Z,100.00
2018-03-01T04:34:50.246Z,100.00
2018-03-01T04:35:53.588Z,100.00
2018-03-01T04:36:56.761Z,100.00
2018-03-01T04:38:00.414Z,100.00
2018-03-01T04:39:03.900Z,100.00
2018-03-01T04:40:07.232Z,100.00
2018-03-01T04:41:10.722Z,100.00
2018-03-01T04:42:14.002Z,100.00
2018-03-01T04:43:17.432Z,100.00
2018-03-01T04:44:20.531Z,100.00
2018-03-01T04:45:23.954Z,100.00
2018-03-01T04:46:27.085Z,100.00
2018-03-01T04:47:30.728Z,100.00
2018-03-01T04:48:34.084Z,100.00
2018-03-01T04:49:37.723Z,100.00
2018-03-01T04:50:40.957Z,100.00
2018-03-01T04:51:44.502Z,100.00
2018-03-01T04:52:47.910Z,100.00
2018-03-01T04:53:52.676Z,100.00
2018-03-01T04:54:56.002Z,100.00
2018-03-01T04:55:59.722Z,100.00
2018-03-01T04:57:02.919Z,100.00
2018-03-01T04:58:06.308Z,100.00
2018-03-01T04:59:09.786Z,100.00
2018-03-01T05:00:13.055Z,100.00
2018-03-01T05:01:16.286Z,100.00
2018-03-01T05:02:19.995Z,100.00
2018-03-01T05:03:23.157Z,100.00
2018-03-01T05:04:26.343Z,100.00
2018-03-01T05:05:29.850Z,100.00
2018-03-01T05:06:33.512Z,100.00
2018-03-01T05:07:36.938Z,100.00
2018-03-01T05:08:40.824Z,100.00
2018-03-01T05:09:44.242Z,100.00
2018-03-01T05:10:47.699Z,100.00
2018-03-01T05:11:51.231Z,100.00
2018-03-01T05:12:54.706Z,100.00
2018-03-01T05:13:58.079Z,100.00
2018-03-01T05:15:02.156Z,100.00
2018-03-01T05:16:05.861Z,100.00
2018-03-01T05:17:09.341Z,100.00
2018-03-01T05:18:12.620Z,100.00
2018-03-01T05:19:16.082Z,100.00
2018-03-01T05:20:19.750Z,100.00
2018-03-01T05:21:23.683Z,100.00
2018-03-01T05:22:27.122Z,100.00
2018-03-01T05:23:30.809Z,100.00
2018-03-01T05:24:34.537Z,100.00
2018-03-01T05:25:38.161Z,100.00
2018-03-01T05:26:41.831Z,100.00
2018-03-01T05:27:45.968Z,100.00
2018-03-01T05:28:49.525Z,100.00
2018-03-01T05:29:53.291Z,100.00
2018-03-01T05:30:56.846Z,100.00
2018-03-01T05:32:00.392Z,100.00
2018-03-01T05:33:03.847Z,100.00
2018-03-01T05:34:07.820Z,100.00
2018-03-01T05:35:11.500Z,100.00
2018-03-01T05:36:15.097Z,100.00
2018-03-01T05:37:18.784Z,100.00
2018-03-01T05:38:22.458Z,100.00
2018-03-01T05:39:26.173Z,100.00
2018-03-01T05:40:30.118Z,100.00
2018-03-01T05:41:33.755Z,100.00
2018-03-01T05:42:37.425Z,100.00
2018-03-01T05:43:41.053Z,100.00
2018-03-01T05:44:44.737Z,100.00
2018-03-01T05:45:48.353Z,100.00
2018-03-01T05:46:52.457Z,100.00
2018-03-01T05:47:56.132Z,100.00
2018-03-01T05:48:59.677Z,100.00
2018-03-01T05:50:03.445Z,100.00
2018-03-01T05:51:07.259Z,100.00
2018-03-01T05:52:11.083Z,100.00
2018-03-01T05:53:15.476Z,100.00
2018-03-01T05:54:19.113Z,100.00
2018-03-01T05:55:22.758Z,100.00
2018-03-01T05:56:26.540Z,100.00
2018-03-01T05:57:30.303Z,100.00
2018-03-01T05:58:34.176Z,100.00
2018-03-01T05:59:38.178Z,100.00
2018-03-01T06:00:41.834Z,100.00
2018-03-01T06:01:45.446Z,100.00
2018-03-01T06:02:49.382Z,100.00
2018-03-01T06:03:53.781Z,100.00
2018-03-01T06:04:57.289Z,100.00
2018-03-01T06:06:01.492Z,100.00
2018-03-01T06:07:04.902Z,100.00
2018-03-01T06:08:08.618Z,100.00
2018-03-01T06:09:12.327Z,100.00
2018-03-01T06:10:16.042Z,100.00
2018-03-01T06:11:19.711Z,100.00
2018-03-01T06:12:23.783Z,100.00
2018-03-01T06:13:27.587Z,100.00
2018-03-01T06:14:31.218Z,100.00
2018-03-01T06:15:34.926Z,100.00
2018-03-01T06:16:38.575Z,100.00
2018-03-01T06:17:42.326Z,100.00
2018-03-01T06:18:46.504Z,100.00
2018-03-01T06:19:50.061Z,100.00
2018-03-01T06:20:53.726Z,100.00
2018-03-01T06:21:57.439Z,100.00
2018-03-01T06:23:01.182Z,100.00
2018-03-01T06:24:05.120Z,100.00
2018-03-01T06:25:09.223Z,100.00
2018-03-01T06:26:12.697Z,100.00
2018-03-01T06:27:16.428Z,100.00
2018-03-01T06:28:20.213Z,100.00
2018-03-01T06:29:24.000Z,100.00
2018-03-01T06:30:27.769Z,100.00
2018-03-01T06:31:31.602Z,100.00
2018-03-01T06:32:35.027Z,100.00
2018-03-01T06:33:38.872Z,100.00
2018-03-01T06:34:42.712Z,100.00
2018-03-01T06:35:46.355Z,100.00
2018-03-01T06:36:50.624Z,100.00
2018-03-01T06:37:54.166Z,100.00
2018-03-01T06:38:58.037Z,100.00
2018-03-01T06:40:01.675Z,100.00
2018-03-01T06:41:05.226Z,100.00
2018-03-01T06:42:08.947Z,100.00
2018-03-01T06:43:12.827Z,100.00
2018-03-01T06:44:16.377Z,100.00
2018-03-01T06:45:20.255Z,100.00
2018-03-01T06:46:23.995Z,100.00
2018-03-01T06:47:27.548Z,100.00
2018-03-01T06:48:31.167Z,100.00
2018-03-01T06:49:35.468Z,100.00
2018-03-01T06:50:39.336Z,100.00
2018-03-01T06:51:42.957Z,100.00
2018-03-01T06:52:46.526Z,100.00
2018-03-01T06:53:50.329Z,100.00
2018-03-01T06:54:54.200Z,100.00
2018-03-01T06:55:58.351Z,100.00
2018-03-01T06:57:01.876Z,100.00
2018-03-01T06:58:05.449Z,100.00
2018-03-01T06:59:09.020Z,100.00
2018-03-01T07:00:12.437Z,100.00
2018-03-01T07:01:16.116Z,100.00
2018-03-01T07:02:20.323Z,100.00
2018-03-01T07:03:23.833Z,100.00
2018-03-01T07:04:27.982Z,100.00
2018-03-01T07:05:32.272Z,100.00
2018-03-01T07:06:35.978Z,100.00
2018-03-01T07:07:39.397Z,100.00
2018-03-01T07:08:43.376Z,100.00
2018-03-01T07:09:46.952Z,100.00
2018-03-01T07:10:50.610Z,100.00
2018-03-01T07:11:54.415Z,100.00
2018-03-01T07:12:58.095Z,100.00
2018-03-01T07:14:01.740Z,100.00
2018-03-01T07:15:05.548Z,100.00
2018-03-01T07:16:09.163Z,100.00
2018-03-01T07:17:12.711Z,100.00
2018-03-01T07:18:16.281Z,100.00
2018-03-01T07:19:20.054Z,100.00
2018-03-01T07:20:23.631Z,100.00
2018-03-01T07:21:27.613Z,100.00
2018-03-01T07:22:31.120Z,100.00
2018-03-01T07:23:34.730Z,100.00
2018-03-01T07:24:38.103Z,100.00
2018-03-01T07:25:41.686Z,100.00
2018-03-01T07:26:45.449Z,100.00
2018-03-01T07:27:49.328Z,100.00
2018-03-01T07:28:52.731Z,100.00
2018-03-01T07:29:56.358Z,100.00
2018-03-01T07:30:59.985Z,100.00
2018-03-01T07:32:03.522Z,100.00
2018-03-01T07:33:07.095Z,100.00
2018-03-01T07:34:10.978Z,100.00
2018-03-01T07:35:14.523Z,100.00
2018-03-01T07:36:18.087Z,100.00
2018-03-01T07:37:21.689Z,100.00
2018-03-01T07:38:25.661Z,98.57
2018-03-01T07:39:30.149Z,98.36
2018-03-01T07:40:33.693Z,97.76
2018-03-01T07:41:37.234Z,97.63
2018-03-01T07:42:40.849Z,97.43
2018-03-01T07:43:44.403Z,97.82
2018-03-01T07:44:47.904Z,98.01
2018-03-01T07:45:51.798Z,97.08
2018-03-01T07:46:55.247Z,96.74
2018-03-01T07:47:58.802Z,95.29
2018-03-01T07:49:02.428Z,96.52
2018-03-01T07:50:06.146Z,95.68
2018-03-01T07:51:09.638Z,95.81
2018-03-01T07:52:13.434Z,96.58
2018-03-01T07:53:16.951Z,97.10
2018-03-01T07:54:20.730Z,96.68
2018-03-01T07:55:24.148Z,95.96
2018-03-01T07:56:27.545Z,96.39
2018-03-01T07:57:31.124Z,96.66
2018-03-01T07:58:35.285Z,96.58
2018-03-01T07:59:38.934Z,97.20
2018-03-01T08:00:42.475Z,97.60
2018-03-01T08:01:45.991Z,97.07
2018-03-01T08:02:49.480Z,96.77
2018-03-01T08:03:53.060Z,96.34
2018-03-01T08:04:57.096Z,95.56
2018-03-01T08:06:00.747Z,95.44
2018-03-01T08:07:04.803Z,93.94
2018-03-01T08:08:08.247Z,94.78
2018-03-01T08:09:11.808Z,94.03
2018-03-01T08:10:15.438Z,91.15
2018-03-01T08:11:19.268Z,89.91
2018-03-01T08:12:22.831Z,90.67
2018-03-01T08:13:26.301Z,90.46
2018-03-01T08:14:29.797Z,89.64
2018-03-01T08:15:33.601Z,89.37
2018-03-01T08:16:37.126Z,87.98
2018-03-01T08:17:40.854Z,86.69
2018-03-01T08:18:44.327Z,84.88
2018-03-01T08:19:48.030Z,82.76
2018-03-01T08:20:51.591Z,82.46
2018-03-01T08:21:54.989Z,80.90
2018-03-01T08:22:58.879Z,79.46
2018-03-01T08:24:02.665Z,80.81
2018-03-01T08:25:06.152Z,78.45
2018-03-01T08:26:09.722Z,77.94
2018-03-01T08:27:13.161Z,76.65
2018-03-01T08:28:16.664Z,74.88
2018-03-01T08:29:20.409Z,73.01
2018-03-01T08:30:24.973Z,70.34
2018-03-01T08:31:28.610Z,70.36
2018-03-01T08:32:32.097Z,63.78
2018-03-01T08:33:35.576Z,65.49
2018-03-01T08:34:39.202Z,65.75
2018-03-01T08:35:43.247Z,63.98
2018-03-01T08:36:46.634Z,65.79
2018-03-01T08:37:50.100Z,65.81
2018-03-01T08:38:53.570Z,65.06
2018-03-01T08:39:57.461Z,63.99
2018-03-01T08:41:01.119Z,63.66
2018-03-01T08:42:05.054Z,65.05
2018-03-01T08:43:08.670Z,64.23
2018-03-01T08:44:12.345Z,60.89
2018-03-01T08:45:15.772Z,60.29
2018-03-01T08:46:19.144Z,60.64
2018-03-01T08:47:22.729Z,60.96
2018-03-01T08:48:26.684Z,60.93
2018-03-01T08:49:30.156Z,59.66
2018-03-01T08:50:33.550Z,58.02
2018-03-01T08:51:36.967Z,58.38
2018-03-01T08:52:40.457Z,57.85
2018-03-01T08:53:43.960Z,58.24
2018-03-01T08:54:47.670Z,58.84
2018-03-01T08:55:51.107Z,58.25
2018-03-01T08:56:54.596Z,59.39
2018-03-01T08:57:57.999Z,60.13
2018-03-01T08:59:01.416Z,59.42
2018-03-01T09:00:05.460Z,58.10
2018-03-01T09:01:09.207Z,58.28
2018-03-01T09:02:12.670Z,58.06
2018-03-01T09:03:16.431Z,57.88
2018-03-01T09:04:19.770Z,55.49
2018-03-01T09:05:23.226Z,55.64
2018-03-01T09:06:26.863Z,56.99
2018-03-01T09:07:30.906Z,54.54
2018-03-01T09:08:34.345Z,53.86
2018-03-01T09:09:38.148Z,52.44
2018-03-01T09:10:41.639Z,53.85
2018-03-01T09:11:45.045Z,54.67
2018-03-01T09:12:48.564Z,53.28
2018-03-01T09:13:52.367Z,53.38
2018-03-01T09:14:55.848Z,53.90
2018-03-01T09:15:59.185Z,54.25
2018-03-01T09:17:02.730Z,51.83
2018-03-01T09:18:06.206Z,52.10
2018-03-01T09:19:09.670Z,51.00
2018-03-01T09:20:13.578Z,51.49
2018-03-01T09:21:16.875Z,51.75
2018-03-01T09:22:20.305Z,51.17
2018-03-01T09:23:23.664Z,51.17
2018-03-01T09:24:26.992Z,48.36
2018-03-01T09:25:30.402Z,48.95
2018-03-01T09:26:33.813Z,49.25
2018-03-01T09:27:37.260Z,49.59
2018-03-01T09:28:40.741Z,50.63
2018-03-01T09:29:44.193Z,49.22
2018-03-01T09:30:47.684Z,49.57
2018-03-01T09:31:51.483Z,48.68
2018-03-01T09:32:54.948Z,48.58
2018-03-01T09:33:58.402Z,48.62
2018-03-01T09:35:01.904Z,48.67
2018-03-01T09:36:05.281Z,47.85
2018-03-01T09:37:08.749Z,47.26
2018-03-01T09:38:12.520Z,47.15
2018-03-01T09:39:15.969Z,47.14
2018-03-01T09:40:19.438Z,45.25
2018-03-01T09:41:23.016Z,46.67
2018-03-01T09:42:26.587Z,47.42
2018-03-01T09:43:30.415Z,47.37
2018-03-01T09:44:34.298Z,47.30
2018-03-01T09:45:37.604Z,46.86
2018-03-01T09:46:41.051Z,45.45
2018-03-01T09:47:44.414Z,46.64
2018-03-01T09:48:47.724Z,46.18
2018-03-01T09:49:51.026Z,45.69
2018-03-01T09:50:54.628Z,44.38
2018-03-01T09:51:57.995Z,45.30
2018-03-01T09:53:01.417Z,45.19
2018-03-01T09:54:04.817Z,45.36
2018-03-01T09:55:08.361Z,45.86
2018-03-01T09:56:12.124Z,45.38
2018-03-01T09:57:17.474Z,45.53
2018-03-01T09:58:20.894Z,45.99
2018-03-01T09:59:24.282Z,45.68
2018-03-01T10:00:27.611Z,46.67
2018-03-01T10:01:30.997Z,46.76
2018-03-01T10:02:36.796Z,44.60
2018-03-01T10:03:43.149Z,45.26
2018-03-01T10:04:46.431Z,46.40
2018-03-01T10:05:49.984Z,44.97
2018-03-01T10:06:53.433Z,44.57
2018-03-01T10:07:56.791Z,45.09
2018-03-01T10:09:00.186Z,44.04
2018-03-01T10:10:03.686Z,44.79
2018-03-01T10:11:07.149Z,44.62
2018-03-01T10:12:10.693Z,43.66
2018-03-01T10:13:14.162Z,44.67
2018-03-01T10:14:17.537Z,45.60
2018-03-01T10:15:21.341Z,45.87
2018-03-01T10:16:24.691Z,46.43
2018-03-01T10:17:28.131Z,46.68
2018-03-01T10:18:31.625Z,46.30
2018-03-01T10:19:34.872Z,45.97
2018-03-01T10:20:38.267Z,46.82
2018-03-01T10:21:42.054Z,46.30
2018-03-01T10:22:45.400Z,46.92
2018-03-01T10:24:54.670Z,46.61
2018-03-01T10:25:58.449Z,47.12
2018-03-01T10:27:01.871Z,47.30
2018-03-01T10:28:05.486Z,47.32
2018-03-01T10:29:09.007Z,47.28
2018-03-01T10:30:12.576Z,46.19
2018-03-01T10:31:15.955Z,46.77
2018-03-01T10:32:19.206Z,45.71
2018-03-01T10:33:23.266Z,45.78
2018-03-01T10:34:26.610Z,46.44
2018-03-01T10:35:30.022Z,46.12
2018-03-01T10:36:34.111Z,45.35
2018-03-01T10:37:38.084Z,46.06
2018-03-01T10:38:41.511Z,45.03
2018-03-01T10:39:45.780Z,44.37
2018-03-01T10:40:49.177Z,44.68
2018-03-01T10:41:52.678Z,44.36
2018-03-01T10:42:56.163Z,44.78
2018-03-01T10:44:00.180Z,44.65
2018-03-01T10:45:03.693Z,44.68
2018-03-01T10:46:07.496Z,44.48
2018-03-01T10:47:10.940Z,44.41
2018-03-01T10:48:14.342Z,43.28
2018-03-01T10:49:17.739Z,43.01
2018-03-01T10:50:21.164Z,42.67
2018-03-01T10:51:24.661Z,43.81
2018-03-01T10:52:28.387Z,43.77
2018-03-01T10:53:31.770Z,43.51
2018-03-01T10:54:35.111Z,43.78
2018-03-01T21:12:24.401Z,87.89
2018-03-01T21:13:27.603Z,87.83
2018-03-01T21:14:30.805Z,87.89
2018-03-01T21:15:34.125Z,88.04
2018-03-01T21:16:37.574Z,88.22
2018-03-01T21:17:40.933Z,88.25
2018-03-01T21:18:44.703Z,88.37
2018-03-01T21:19:48.072Z,88.78
2018-03-01T21:20:51.320Z,88.86
2018-03-01T21:21:54.611Z,89.26
2018-03-01T21:22:58.222Z,88.47
2018-03-01T21:24:01.916Z,88.61
2018-03-01T21:25:05.716Z,89.16
2018-03-01T21:26:09.047Z,89.57
2018-03-01T21:27:12.344Z,89.92
2018-03-01T21:28:15.708Z,89.82
2018-03-01T21:29:19.022Z,89.66
2018-03-01T21:30:22.312Z,89.56
2018-03-01T21:31:26.014Z,89.94
2018-03-01T21:32:29.403Z,89.83
2018-03-01T21:33:32.753Z,89.85
2018-03-01T21:34:36.067Z,89.85
2018-03-01T21:35:39.386Z,89.87
2018-03-01T21:36:42.715Z,89.55
2018-03-01T21:37:46.474Z,89.81
2018-03-01T21:38:49.824Z,89.91
2018-03-01T21:39:53.162Z,89.75
2018-03-01T21:40:56.444Z,89.79
2018-03-01T21:41:59.826Z,90.14
2018-03-01T21:43:03.137Z,90.85
2018-03-01T21:44:06.814Z,90.86
2018-03-01T21:45:10.154Z,91.12
2018-03-01T21:46:13.482Z,91.04
2018-03-01T21:47:16.750Z,91.25
2018-03-01T21:48:19.933Z,91.17
2018-03-01T21:49:23.349Z,91.33
2018-03-01T21:50:26.689Z,91.46
2018-03-01T21:51:29.831Z,91.44
2018-03-01T21:52:32.973Z,91.82
2018-03-01T21:53:36.127Z,91.89
2018-03-01T21:54:39.222Z,91.98
2018-03-01T21:55:42.807Z,92.12
2018-03-01T21:56:46.142Z,91.89
2018-03-01T21:57:49.459Z,92.08
2018-03-01T21:58:52.728Z,92.16
2018-03-01T21:59:55.963Z,92.58
2018-03-01T22:00:59.118Z,92.89
2018-03-01T22:02:02.833Z,92.62
2018-03-01T22:03:06.177Z,92.37
2018-03-01T22:04:09.686Z,93.02
2018-03-01T22:05:12.913Z,93.06
2018-03-01T22:06:16.562Z,93.15
2018-03-01T22:07:19.901Z,93.19
2018-03-01T22:08:24.764Z,93.21
2018-03-01T22:09:28.065Z,93.05
2018-03-01T22:10:31.317Z,93.23
2018-03-01T22:11:34.636Z,93.17
2018-03-01T22:12:38.174Z,93.31
2018-03-01T22:13:41.453Z,93.60
2018-03-01T22:14:45.076Z,93.52
2018-03-01T22:15:48.572Z,93.09
2018-03-01T22:16:51.914Z,93.03
2018-03-01T22:17:55.276Z,93.09
2018-03-01T22:18:58.611Z,93.22
2018-03-01T22:20:02.151Z,93.76
2018-03-01T22:21:05.899Z,93.96
2018-03-01T22:22:09.165Z,94.16
2018-03-01T22:23:12.497Z,94.28
2018-03-01T22:24:15.800Z,94.56
2018-03-01T22:25:19.231Z,94.46
2018-03-01T22:26:22.603Z,94.59
2018-03-01T22:27:26.310Z,94.41
2018-03-01T22:28:29.479Z,94.45
2018-03-01T22:29:32.631Z,94.58
2018-03-01T22:30:35.915Z,94.75
2018-03-01T22:31:39.838Z,94.85
2018-03-01T22:32:43.200Z,94.91
2018-03-01T22:33:46.848Z,95.52
2018-03-01T22:34:50.144Z,95.92
2018-03-01T22:35:53.595Z,95.87
2018-03-01T22:36:56.939Z,96.07
2018-03-01T22:38:00.238Z,96.23
2018-03-01T22:39:03.538Z,96.29
2018-03-01T22:40:07.418Z,95.70
2018-03-01T22:41:10.847Z,95.79
2018-03-01T22:42:14.184Z,96.02
2018-03-01T22:43:17.364Z,96.23
2018-03-01T22:44:20.768Z,96.19
2018-03-01T22:45:24.202Z,96.36
2018-03-01T22:46:27.578Z,96.51
2018-03-01T22:47:30.844Z,96.37
2018-03-01T22:48:34.147Z,96.38
2018-03-01T22:49:37.643Z,96.50
2018-03-01T22:50:40.991Z,96.61
2018-03-01T22:51:45.519Z,96.50
2018-03-01T22:52:48.828Z,96.72
2018-03-01T22:53:52.189Z,96.91
2018-03-01T22:54:55.559Z,97.03
2018-03-01T22:55:59.057Z,97.04
2018-03-01T22:57:02.464Z,97.19
2018-03-01T22:58:06.235Z,97.20
2018-03-01T22:59:09.626Z,96.74
2018-03-01T23:00:13.088Z,96.84
2018-03-01T23:01:16.529Z,96.71
2018-03-01T23:02:19.758Z,97.06
2018-03-01T23:03:23.190Z,97.52
2018-03-01T23:04:27.107Z,97.43
2018-03-01T23:05:30.563Z,97.07
2018-03-01T23:06:34.022Z,97.27
2018-03-01T23:07:38.424Z,97.51
2018-03-01T23:08:41.895Z,97.70
2018-03-01T23:09:45.276Z,98.14
2018-03-01T23:10:49.228Z,98.48
2018-03-01T23:11:52.748Z,98.80
2018-03-01T23:12:56.169Z,99.05
2018-03-01T23:13:59.603Z,98.97
2018-03-01T23:15:02.975Z,98.96
2018-03-01T23:16:06.406Z,99.00
2018-03-01T23:17:09.879Z,99.05
2018-03-01T23:18:13.218Z,99.24
2018-03-01T23:19:16.788Z,99.13
2018-03-01T23:20:20.265Z,98.96
2018-03-01T23:21:23.791Z,99.25
2018-03-01T23:22:27.732Z,99.05
2018-03-01T23:23:31.339Z,98.99
2018-03-01T23:24:34.842Z,99.56
2018-03-01T23:25:38.312Z,99.84
2018-03-01T23:26:42.019Z,99.73
2018-03-01T23:27:45.495Z,99.82
2018-03-01T23:28:49.413Z,99.90
2018-03-01T23:29:52.787Z,99.95
2018-03-01T23:30:56.388Z,100.00
2018-03-01T23:31:59.875Z,100.00
2018-03-01T23:33:03.328Z,100.00
2018-03-01T23:34:06.931Z,100.00
2018-03-01T23:35:10.788Z,100.00
2018-03-01T23:36:14.505Z,100.00
2018-03-01T23:37:18.080Z,100.00
2018-03-01T23:38:21.399Z,100.00
2018-03-01T23:39:24.643Z,100.00
2018-03-01T23:40:27.995Z,100.00
2018-03-01T23:41:31.885Z,100.00